sensor_id;sensor_type;location;lat;lon;timestamp;pressure;altitude;pressure_sealevel;temperature;humidity
73105;BME280;61296;50.526;30.792;2023-04-23T00:05:11;99422.72;;;11.48;52.31
73105;BME280;61296;50.526;30.792;2023-04-23T00:20:31;99392.06;;;10.98;54.39
73105;BME280;61296;50.526;30.792;2023-04-23T00:35:52;99332.50;;;10.25;55.23
73105;BME280;61296;50.526;30.792;2023-04-23T00:51:11;99350.44;;;10.19;56.35
73105;BME280;61296;50.526;30.792;2023-04-23T01:06:31;99449.31;;;10.82;57.43
73105;BME280;61296;50.526;30.792;2023-04-23T01:21:52;99449.25;;;10.75;58.34
73105;BME280;61296;50.526;30.792;2023-04-23T01:37:12;99293.09;;;9.76;58.63
73105;BME280;61296;50.526;30.792;2023-04-23T01:52:32;99299.13;;;9.55;60.32
73105;BME280;61296;50.526;30.792;2023-04-23T02:07:51;99321.75;;;9.45;61.10
73105;BME280;61296;50.526;30.792;2023-04-23T02:23:11;99333.13;;;9.47;59.45
73105;BME280;61296;50.526;30.792;2023-04-23T02:38:30;99473.53;;;10.32;61.55
73105;BME280;61296;50.526;30.792;2023-04-23T02:53:50;99404.53;;;9.77;61.79
73105;BME280;61296;50.526;30.792;2023-04-23T03:09:09;99332.13;;;9.29;62.07
73105;BME280;61296;50.526;30.792;2023-04-23T03:24:29;99487.84;;;9.89;62.01
73105;BME280;61296;50.526;30.792;2023-04-23T03:39:50;99349.72;;;8.98;60.70
73105;BME280;61296;50.526;30.792;2023-04-23T03:55:10;99510.13;;;10.10;60.91
73105;BME280;61296;50.526;30.792;2023-04-23T04:10:35;99483.91;;;10.16;57.01
73105;BME280;61296;50.526;30.792;2023-04-23T04:25:56;99463.25;;;10.26;57.13
73105;BME280;61296;50.526;30.792;2023-04-23T04:41:16;99539.38;;;10.89;55.58
73105;BME280;61296;50.526;30.792;2023-04-23T04:56:38;99471.94;;;10.65;56.49
73105;BME280;61296;50.526;30.792;2023-04-23T05:11:57;99477.75;;;10.97;55.22
73105;BME280;61296;50.526;30.792;2023-04-23T05:27:17;99587.97;;;12.00;55.31
73105;BME280;61296;50.526;30.792;2023-04-23T05:42:36;99507.91;;;11.78;54.14
73105;BME280;61296;50.526;30.792;2023-04-23T05:57:56;99522.13;;;12.67;52.74
73105;BME280;61296;50.526;30.792;2023-04-23T06:13:35;99573.13;;;14.16;49.05
73105;BME280;61296;50.526;30.792;2023-04-23T06:28:58;99580.97;;;15.30;39.26
73105;BME280;61296;50.526;30.792;2023-04-23T06:44:34;99559.44;;;16.00;40.86
73105;BME280;61296;50.526;30.792;2023-04-23T06:59:55;99500.09;;;15.91;39.99
73105;BME280;61296;50.526;30.792;2023-04-23T07:15:18;99523.97;;;16.53;34.00
73105;BME280;61296;50.526;30.792;2023-04-23T07:30:38;99584.47;;;17.02;33.98
73105;BME280;61296;50.526;30.792;2023-04-23T07:45:58;99633.31;;;17.30;33.52
73105;BME280;61296;50.526;30.792;2023-04-23T08:01:18;99655.94;;;17.29;32.90
73105;BME280;61296;50.526;30.792;2023-04-23T08:16:37;99644.03;;;17.28;29.96
73105;BME280;61296;50.526;30.792;2023-04-23T08:31:58;99524.38;;;16.85;31.83
73105;BME280;61296;50.526;30.792;2023-04-23T08:47:19;99590.75;;;16.76;32.50
73105;BME280;61296;50.526;30.792;2023-04-23T09:02:43;99615.72;;;16.80;32.01
73105;BME280;61296;50.526;30.792;2023-04-23T09:18:03;99613.53;;;16.60;33.21
73105;BME280;61296;50.526;30.792;2023-04-23T09:33:24;99572.97;;;16.66;29.59
73105;BME280;61296;50.526;30.792;2023-04-23T09:48:45;99484.78;;;16.78;28.40
73105;BME280;61296;50.526;30.792;2023-04-23T10:04:05;99571.66;;;17.09;26.44
73105;BME280;61296;50.526;30.792;2023-04-23T10:19:26;99585.19;;;17.60;26.58
73105;BME280;61296;50.526;30.792;2023-04-23T10:34:47;99600.59;;;17.92;26.13
73105;BME280;61296;50.526;30.792;2023-04-23T10:50:21;99527.34;;;17.52;27.32
73105;BME280;61296;50.526;30.792;2023-04-23T11:05:43;99513.91;;;17.47;27.56
73105;BME280;61296;50.526;30.792;2023-04-23T11:21:03;99484.97;;;17.21;26.56
73105;BME280;61296;50.526;30.792;2023-04-23T11:36:22;99464.25;;;17.72;27.50
73105;BME280;61296;50.526;30.792;2023-04-23T11:51:43;99531.97;;;17.85;26.31
73105;BME280;61296;50.526;30.792;2023-04-23T12:07:03;99439.41;;;17.15;27.11
73105;BME280;61296;50.526;30.792;2023-04-23T12:38:25;99527.31;;;18.42;28.03
73105;BME280;61296;50.526;30.792;2023-04-23T12:53:45;99497.06;;;18.24;28.09
73105;BME280;61296;50.526;30.792;2023-04-23T13:09:04;99442.53;;;17.64;26.82
73105;BME280;61296;50.526;30.792;2023-04-23T13:24:26;99498.50;;;17.89;25.81
73105;BME280;61296;50.526;30.792;2023-04-23T13:39:45;99528.00;;;18.06;26.16
73105;BME280;61296;50.526;30.792;2023-04-23T13:55:05;99503.03;;;17.56;27.23
73105;BME280;61296;50.526;30.792;2023-04-23T14:10:26;99448.16;;;17.13;26.23
73105;BME280;61296;50.526;30.792;2023-04-23T14:26:07;99388.47;;;16.98;26.29
73105;BME280;61296;50.526;30.792;2023-04-23T14:41:29;99456.91;;;17.58;27.28
73105;BME280;61296;50.526;30.792;2023-04-23T14:56:51;99480.69;;;17.63;28.28
73105;BME280;61296;50.526;30.792;2023-04-23T15:27:51;99420.19;;;17.00;28.70
73105;BME280;61296;50.526;30.792;2023-04-23T15:43:16;99442.94;;;16.92;30.18
73105;BME280;61296;50.526;30.792;2023-04-23T15:58:39;99431.00;;;16.68;30.73
73105;BME280;61296;50.526;30.792;2023-04-23T16:13:58;99419.00;;;16.44;32.86
73105;BME280;61296;50.526;30.792;2023-04-23T16:29:17;99493.53;;;16.80;32.88
73105;BME280;61296;50.526;30.792;2023-04-23T16:44:37;99493.38;;;16.56;33.06
73105;BME280;61296;50.526;30.792;2023-04-23T16:59:57;99452.00;;;16.04;33.46
73105;BME280;61296;50.526;30.792;2023-04-23T17:15:16;99431.69;;;15.39;33.90
73105;BME280;61296;50.526;30.792;2023-04-23T17:30:38;99501.22;;;15.52;34.02
73105;BME280;61296;50.526;30.792;2023-04-23T17:45:57;99530.91;;;15.55;34.00
73105;BME280;61296;50.526;30.792;2023-04-23T18:01:17;99514.84;;;15.36;33.77
73105;BME280;61296;50.526;30.792;2023-04-23T18:16:37;99552.09;;;15.27;34.83
73105;BME280;61296;50.526;30.792;2023-04-23T18:31:57;99498.25;;;14.73;35.34
73105;BME280;61296;50.526;30.792;2023-04-23T18:47:17;99540.63;;;14.56;36.85
73105;BME280;61296;50.526;30.792;2023-04-23T19:02:37;99564.00;;;14.33;38.07
73105;BME280;61296;50.526;30.792;2023-04-23T19:17:59;99389.69;;;13.10;38.77
73105;BME280;61296;50.526;30.792;2023-04-23T19:33:18;99430.31;;;12.78;40.92
73105;BME280;61296;50.526;30.792;2023-04-23T19:48:38;99423.56;;;12.57;40.83
73105;BME280;61296;50.526;30.792;2023-04-23T20:03:57;99380.19;;;12.33;40.28
73105;BME280;61296;50.526;30.792;2023-04-23T20:19:17;99390.47;;;12.54;39.89
73105;BME280;61296;50.526;30.792;2023-04-23T20:34:36;99518.34;;;13.36;39.80
73105;BME280;61296;50.526;30.792;2023-04-23T20:49:57;99498.16;;;13.07;39.70
73105;BME280;61296;50.526;30.792;2023-04-23T21:05:17;99466.19;;;12.74;39.57
73105;BME280;61296;50.526;30.792;2023-04-23T21:20:36;99474.44;;;12.70;39.43
73105;BME280;61296;50.526;30.792;2023-04-23T21:35:56;99536.81;;;13.04;39.05
73105;BME280;61296;50.526;30.792;2023-04-23T21:51:16;99462.56;;;12.49;39.26
73105;BME280;61296;50.526;30.792;2023-04-23T22:06:35;99511.13;;;12.78;39.03
73105;BME280;61296;50.526;30.792;2023-04-23T22:21:55;99494.91;;;12.55;39.93
73105;BME280;61296;50.526;30.792;2023-04-23T22:37:15;99403.31;;;12.03;40.17
73105;BME280;61296;50.526;30.792;2023-04-23T22:52:38;99420.28;;;12.12;40.47
73105;BME280;61296;50.526;30.792;2023-04-23T23:07:57;99408.41;;;11.98;40.47
73105;BME280;61296;50.526;30.792;2023-04-23T23:23:16;99398.44;;;11.75;41.39
73105;BME280;61296;50.526;30.792;2023-04-23T23:38:35;99463.25;;;12.21;41.45
73105;BME280;61296;50.526;30.792;2023-04-23T23:53:54;99358.19;;;11.53;41.54
